Clarence, Louisiana
Current Conditions -  °F | °C
As of 7:35 AM on Friday 28 Nov 2014 (Local Time) from KIER Reporting Station
Clear Clear  
Wind Chill: 35°   Ceiling: Unl
Heat Index: 35°   Visibility: 10mi
Dew Point: 35°   Wind: 3mph
Humidity: 100%   Direction: 160°SSE
Pressure: 30.4"   Gusts: NA
Location:  31.82°N, 93.03°W
Report Text: KIER 281335Z AUTO 16003KT 10SM CLR 02/02 A3040 RMK AO2 T00150015
Loading
Personal Weather Stations






























Interactive Weather Map New forecast layout! Learn more

10-Day Weather Forecast

Advertisements
Track Severe Weather on mobile